sensor_id;sensor_type;location;lat;lon;timestamp;temperature;humidity
1367;DHT22;16877;48.810;9.282;2023-06-04T00:02:04;31.10;35.30
1367;DHT22;16877;48.810;9.282;2023-06-04T00:04:33;31.10;35.30
1367;DHT22;16877;48.810;9.282;2023-06-04T00:07:00;31.10;35.30
1367;DHT22;16877;48.810;9.282;2023-06-04T00:09:28;31.00;35.20
1367;DHT22;16877;48.810;9.282;2023-06-04T00:11:55;31.00;35.30
1367;DHT22;16877;48.810;9.282;2023-06-04T00:14:23;30.90;35.20
1367;DHT22;16877;48.810;9.282;2023-06-04T00:16:53;30.90;35.20
1367;DHT22;16877;48.810;9.282;2023-06-04T00:19:20;30.90;35.20
1367;DHT22;16877;48.810;9.282;2023-06-04T00:21:49;30.90;35.20
1367;DHT22;16877;48.810;9.282;2023-06-04T00:24:17;30.80;35.20
1367;DHT22;16877;48.810;9.282;2023-06-04T00:26:48;30.80;35.20
1367;DHT22;16877;48.810;9.282;2023-06-04T00:29:16;30.80;35.30
1367;DHT22;16877;48.810;9.282;2023-06-04T00:31:44;30.80;35.30
1367;DHT22;16877;48.810;9.282;2023-06-04T00:34:26;30.80;35.40
1367;DHT22;16877;48.810;9.282;2023-06-04T00:36:55;30.70;35.40
1367;DHT22;16877;48.810;9.282;2023-06-04T00:39:22;30.70;35.90
1367;DHT22;16877;48.810;9.282;2023-06-04T00:41:50;30.60;35.20
1367;DHT22;16877;48.810;9.282;2023-06-04T00:44:18;30.60;35.30
1367;DHT22;16877;48.810;9.282;2023-06-04T00:46:47;30.60;35.20
1367;DHT22;16877;48.810;9.282;2023-06-04T00:49:15;30.60;35.20
1367;DHT22;16877;48.810;9.282;2023-06-04T00:51:42;30.50;35.20
1367;DHT22;16877;48.810;9.282;2023-06-04T00:54:12;30.50;35.30
1367;DHT22;16877;48.810;9.282;2023-06-04T00:56:50;30.50;35.30
1367;DHT22;16877;48.810;9.282;2023-06-04T00:59:21;30.40;35.30
1367;DHT22;16877;48.810;9.282;2023-06-04T01:01:56;30.40;35.50
1367;DHT22;16877;48.810;9.282;2023-06-04T01:04:29;30.40;35.60
1367;DHT22;16877;48.810;9.282;2023-06-04T01:06:57;30.40;35.70
1367;DHT22;16877;48.810;9.282;2023-06-04T01:09:31;30.40;35.80
1367;DHT22;16877;48.810;9.282;2023-06-04T01:11:59;30.30;35.70
1367;DHT22;16877;48.810;9.282;2023-06-04T01:14:30;30.30;35.80
1367;DHT22;16877;48.810;9.282;2023-06-04T01:17:02;30.30;35.90
1367;DHT22;16877;48.810;9.282;2023-06-04T01:22:32;30.30;36.10
1367;DHT22;16877;48.810;9.282;2023-06-04T01:25:04;30.20;36.00
1367;DHT22;16877;48.810;9.282;2023-06-04T01:27:35;30.20;36.10
1367;DHT22;16877;48.810;9.282;2023-06-04T01:30:04;30.20;36.10
1367;DHT22;16877;48.810;9.282;2023-06-04T01:32:33;30.20;36.10
1367;DHT22;16877;48.810;9.282;2023-06-04T01:35:01;30.10;36.10
1367;DHT22;16877;48.810;9.282;2023-06-04T01:37:29;30.10;36.10
1367;DHT22;16877;48.810;9.282;2023-06-04T01:39:56;30.10;36.10
1367;DHT22;16877;48.810;9.282;2023-06-04T01:42:25;30.10;36.70
1367;DHT22;16877;48.810;9.282;2023-06-04T01:44:57;30.00;36.20
1367;DHT22;16877;48.810;9.282;2023-06-04T01:47:24;30.00;36.30
1367;DHT22;16877;48.810;9.282;2023-06-04T01:49:52;30.00;36.30
1367;DHT22;16877;48.810;9.282;2023-06-04T01:52:20;30.00;36.40
1367;DHT22;16877;48.810;9.282;2023-06-04T01:54:48;29.90;36.40
1367;DHT22;16877;48.810;9.282;2023-06-04T01:57:18;29.90;36.40
1367;DHT22;16877;48.810;9.282;2023-06-04T01:59:47;29.90;36.40
1367;DHT22;16877;48.810;9.282;2023-06-04T02:02:16;29.90;36.40
1367;DHT22;16877;48.810;9.282;2023-06-04T02:04:44;29.90;36.40
1367;DHT22;16877;48.810;9.282;2023-06-04T02:07:12;29.80;36.30
1367;DHT22;16877;48.810;9.282;2023-06-04T02:09:43;29.80;36.40
1367;DHT22;16877;48.810;9.282;2023-06-04T02:12:10;29.80;36.40
1367;DHT22;16877;48.810;9.282;2023-06-04T02:14:38;29.80;36.50
1367;DHT22;16877;48.810;9.282;2023-06-04T02:17:09;29.70;36.50
1367;DHT22;16877;48.810;9.282;2023-06-04T02:19:38;29.70;36.50
1367;DHT22;16877;48.810;9.282;2023-06-04T02:22:10;29.70;36.60
1367;DHT22;16877;48.810;9.282;2023-06-04T02:24:38;29.70;36.60
1367;DHT22;16877;48.810;9.282;2023-06-04T02:27:08;29.70;36.70
1367;DHT22;16877;48.810;9.282;2023-06-04T02:29:36;29.60;36.60
1367;DHT22;16877;48.810;9.282;2023-06-04T02:32:04;29.60;36.60
1367;DHT22;16877;48.810;9.282;2023-06-04T02:34:33;29.50;36.60
1367;DHT22;16877;48.810;9.282;2023-06-04T02:37:01;29.50;36.60
1367;DHT22;16877;48.810;9.282;2023-06-04T02:39:29;29.50;36.60
1367;DHT22;16877;48.810;9.282;2023-06-04T02:41:57;29.50;36.70
1367;DHT22;16877;48.810;9.282;2023-06-04T02:44:24;29.50;36.70
1367;DHT22;16877;48.810;9.282;2023-06-04T02:46:51;29.40;36.70
1367;DHT22;16877;48.810;9.282;2023-06-04T02:49:22;29.40;36.80
1367;DHT22;16877;48.810;9.282;2023-06-04T02:51:52;29.40;36.80
1367;DHT22;16877;48.810;9.282;2023-06-04T02:54:20;29.40;36.80
1367;DHT22;16877;48.810;9.282;2023-06-04T02:56:47;29.40;36.90
1367;DHT22;16877;48.810;9.282;2023-06-04T02:59:17;29.30;36.90
1367;DHT22;16877;48.810;9.282;2023-06-04T03:01:44;29.30;36.90
1367;DHT22;16877;48.810;9.282;2023-06-04T03:04:12;29.30;36.90
1367;DHT22;16877;48.810;9.282;2023-06-04T03:06:41;29.30;37.00
1367;DHT22;16877;48.810;9.282;2023-06-04T03:09:12;29.30;37.10
1367;DHT22;16877;48.810;9.282;2023-06-04T03:11:39;29.20;37.00
1367;DHT22;16877;48.810;9.282;2023-06-04T03:14:07;29.20;37.10
1367;DHT22;16877;48.810;9.282;2023-06-04T03:16:37;29.20;37.10
1367;DHT22;16877;48.810;9.282;2023-06-04T03:19:05;29.20;37.20
1367;DHT22;16877;48.810;9.282;2023-06-04T03:21:34;29.20;37.20
1367;DHT22;16877;48.810;9.282;2023-06-04T03:24:01;29.10;37.20
1367;DHT22;16877;48.810;9.282;2023-06-04T03:26:30;29.10;37.20
1367;DHT22;16877;48.810;9.282;2023-06-04T03:28:57;29.10;37.20
1367;DHT22;16877;48.810;9.282;2023-06-04T03:31:25;29.10;37.30
1367;DHT22;16877;48.810;9.282;2023-06-04T03:33:53;29.10;37.90
1367;DHT22;16877;48.810;9.282;2023-06-04T03:36:21;29.10;37.30
1367;DHT22;16877;48.810;9.282;2023-06-04T03:38:57;29.10;37.40
1367;DHT22;16877;48.810;9.282;2023-06-04T03:41:24;29.00;37.30
1367;DHT22;16877;48.810;9.282;2023-06-04T03:43:54;29.00;37.50
1367;DHT22;16877;48.810;9.282;2023-06-04T03:46:21;29.00;37.50
1367;DHT22;16877;48.810;9.282;2023-06-04T03:48:50;29.00;37.50
1367;DHT22;16877;48.810;9.282;2023-06-04T03:51:18;29.00;37.60
1367;DHT22;16877;48.810;9.282;2023-06-04T03:53:47;29.00;37.70
1367;DHT22;16877;48.810;9.282;2023-06-04T03:56:14;28.90;37.70
1367;DHT22;16877;48.810;9.282;2023-06-04T03:58:41;29.00;37.80
1367;DHT22;16877;48.810;9.282;2023-06-04T04:01:11;28.90;37.90
1367;DHT22;16877;48.810;9.282;2023-06-04T04:03:38;28.90;37.90
1367;DHT22;16877;48.810;9.282;2023-06-04T04:06:05;28.90;38.00
1367;DHT22;16877;48.810;9.282;2023-06-04T04:08:33;28.90;38.10
1367;DHT22;16877;48.810;9.282;2023-06-04T04:11:00;28.90;38.10
1367;DHT22;16877;48.810;9.282;2023-06-04T04:13:28;28.90;38.20
1367;DHT22;16877;48.810;9.282;2023-06-04T04:15:55;28.90;38.20
1367;DHT22;16877;48.810;9.282;2023-06-04T04:18:24;28.90;38.20
1367;DHT22;16877;48.810;9.282;2023-06-04T04:20:52;28.90;38.20
1367;DHT22;16877;48.810;9.282;2023-06-04T04:23:21;28.90;38.20
1367;DHT22;16877;48.810;9.282;2023-06-04T04:25:49;28.90;38.20
1367;DHT22;16877;48.810;9.282;2023-06-04T04:28:17;28.90;38.10
1367;DHT22;16877;48.810;9.282;2023-06-04T04:30:45;28.90;38.20
1367;DHT22;16877;48.810;9.282;2023-06-04T04:33:14;28.90;38.20
1367;DHT22;16877;48.810;9.282;2023-06-04T04:35:44;28.90;38.10
1367;DHT22;16877;48.810;9.282;2023-06-04T04:38:13;28.90;38.10
1367;DHT22;16877;48.810;9.282;2023-06-04T04:40:43;28.90;38.10
1367;DHT22;16877;48.810;9.282;2023-06-04T04:43:13;28.90;38.10
1367;DHT22;16877;48.810;9.282;2023-06-04T04:45:41;28.90;38.10
1367;DHT22;16877;48.810;9.282;2023-06-04T04:48:08;28.90;38.10
1367;DHT22;16877;48.810;9.282;2023-06-04T04:50:37;28.90;38.10
1367;DHT22;16877;48.810;9.282;2023-06-04T04:53:11;28.90;38.10
1367;DHT22;16877;48.810;9.282;2023-06-04T04:55:38;28.90;38.10
1367;DHT22;16877;48.810;9.282;2023-06-04T04:58:06;28.90;38.10
1367;DHT22;16877;48.810;9.282;2023-06-04T05:00:47;28.90;38.10
1367;DHT22;16877;48.810;9.282;2023-06-04T05:03:15;28.90;38.10
1367;DHT22;16877;48.810;9.282;2023-06-04T05:05:42;28.90;38.10
1367;DHT22;16877;48.810;9.282;2023-06-04T05:08:11;28.90;38.10
1367;DHT22;16877;48.810;9.282;2023-06-04T05:10:39;29.00;38.10
1367;DHT22;16877;48.810;9.282;2023-06-04T05:13:22;29.00;38.10
1367;DHT22;16877;48.810;9.282;2023-06-04T05:15:50;29.00;38.10
1367;DHT22;16877;48.810;9.282;2023-06-04T05:18:18;29.00;38.10
1367;DHT22;16877;48.810;9.282;2023-06-04T05:20:47;29.00;38.10
1367;DHT22;16877;48.810;9.282;2023-06-04T05:23:21;29.00;38.10
1367;DHT22;16877;48.810;9.282;2023-06-04T05:25:48;29.10;38.00
1367;DHT22;16877;48.810;9.282;2023-06-04T05:28:16;29.10;37.90
1367;DHT22;16877;48.810;9.282;2023-06-04T05:30:44;29.10;37.90
1367;DHT22;16877;48.810;9.282;2023-06-04T05:33:14;29.10;37.70
1367;DHT22;16877;48.810;9.282;2023-06-04T05:35:45;29.20;37.60
1367;DHT22;16877;48.810;9.282;2023-06-04T05:38:29;29.20;37.40
1367;DHT22;16877;48.810;9.282;2023-06-04T05:41:01;29.30;37.30
1367;DHT22;16877;48.810;9.282;2023-06-04T05:43:28;29.30;37.10
1367;DHT22;16877;48.810;9.282;2023-06-04T05:46:06;29.30;36.90
1367;DHT22;16877;48.810;9.282;2023-06-04T05:48:39;29.40;36.80
1367;DHT22;16877;48.810;9.282;2023-06-04T05:51:06;29.40;36.50
1367;DHT22;16877;48.810;9.282;2023-06-04T05:53:35;29.40;36.30
1367;DHT22;16877;48.810;9.282;2023-06-04T05:56:03;29.50;36.30
1367;DHT22;16877;48.810;9.282;2023-06-04T05:58:32;29.60;36.10
1367;DHT22;16877;48.810;9.282;2023-06-04T06:01:04;29.60;35.90
1367;DHT22;16877;48.810;9.282;2023-06-04T06:03:32;29.60;35.70
1367;DHT22;16877;48.810;9.282;2023-06-04T06:05:59;29.70;35.50
1367;DHT22;16877;48.810;9.282;2023-06-04T06:08:27;29.70;35.30
1367;DHT22;16877;48.810;9.282;2023-06-04T06:10:57;29.60;35.10
1367;DHT22;16877;48.810;9.282;2023-06-04T06:13:30;29.70;35.00
1367;DHT22;16877;48.810;9.282;2023-06-04T06:15:57;29.70;34.80
1367;DHT22;16877;48.810;9.282;2023-06-04T06:18:24;29.70;34.80
1367;DHT22;16877;48.810;9.282;2023-06-04T06:20:52;29.80;34.70
1367;DHT22;16877;48.810;9.282;2023-06-04T06:23:19;29.80;34.60
1367;DHT22;16877;48.810;9.282;2023-06-04T06:25:49;29.90;34.60
1367;DHT22;16877;48.810;9.282;2023-06-04T06:28:19;29.90;34.50
1367;DHT22;16877;48.810;9.282;2023-06-04T06:30:47;29.90;34.50
1367;DHT22;16877;48.810;9.282;2023-06-04T06:33:14;30.00;34.30
1367;DHT22;16877;48.810;9.282;2023-06-04T06:35:42;30.00;34.40
1367;DHT22;16877;48.810;9.282;2023-06-04T06:38:13;30.00;34.30
1367;DHT22;16877;48.810;9.282;2023-06-04T06:40:43;30.10;34.20
1367;DHT22;16877;48.810;9.282;2023-06-04T06:43:10;30.10;34.20
1367;DHT22;16877;48.810;9.282;2023-06-04T06:45:39;30.10;34.10
1367;DHT22;16877;48.810;9.282;2023-06-04T06:48:10;30.10;34.10
1367;DHT22;16877;48.810;9.282;2023-06-04T06:50:38;30.20;34.10
1367;DHT22;16877;48.810;9.282;2023-06-04T06:53:20;30.30;34.00
1367;DHT22;16877;48.810;9.282;2023-06-04T06:55:48;30.40;34.10
1367;DHT22;16877;48.810;9.282;2023-06-04T06:58:17;30.50;34.00
1367;DHT22;16877;48.810;9.282;2023-06-04T07:00:46;30.50;34.10
1367;DHT22;16877;48.810;9.282;2023-06-04T07:03:14;30.60;33.90
1367;DHT22;16877;48.810;9.282;2023-06-04T07:05:41;30.60;34.30
1367;DHT22;16877;48.810;9.282;2023-06-04T07:08:09;30.70;34.10
1367;DHT22;16877;48.810;9.282;2023-06-04T07:10:36;30.80;34.00
1367;DHT22;16877;48.810;9.282;2023-06-04T07:13:07;30.90;33.80
1367;DHT22;16877;48.810;9.282;2023-06-04T07:15:35;30.90;33.70
1367;DHT22;16877;48.810;9.282;2023-06-04T07:18:14;31.00;33.90
1367;DHT22;16877;48.810;9.282;2023-06-04T07:20:42;31.00;33.70
1367;DHT22;16877;48.810;9.282;2023-06-04T07:23:09;31.20;33.70
1367;DHT22;16877;48.810;9.282;2023-06-04T07:25:37;31.20;33.70
1367;DHT22;16877;48.810;9.282;2023-06-04T07:28:05;31.30;33.50
1367;DHT22;16877;48.810;9.282;2023-06-04T07:30:33;31.30;33.60
1367;DHT22;16877;48.810;9.282;2023-06-04T07:33:01;31.40;33.40
1367;DHT22;16877;48.810;9.282;2023-06-04T07:35:31;31.50;33.40
1367;DHT22;16877;48.810;9.282;2023-06-04T07:37:58;31.50;33.40
1367;DHT22;16877;48.810;9.282;2023-06-04T07:40:26;31.60;33.40
1367;DHT22;16877;48.810;9.282;2023-06-04T07:42:53;31.70;33.40
1367;DHT22;16877;48.810;9.282;2023-06-04T07:45:21;31.80;33.40
1367;DHT22;16877;48.810;9.282;2023-06-04T07:47:49;31.90;33.40
1367;DHT22;16877;48.810;9.282;2023-06-04T07:50:16;32.00;33.30
1367;DHT22;16877;48.810;9.282;2023-06-04T07:52:46;32.10;33.30
1367;DHT22;16877;48.810;9.282;2023-06-04T07:55:13;32.10;33.20
1367;DHT22;16877;48.810;9.282;2023-06-04T07:57:41;32.20;33.10
1367;DHT22;16877;48.810;9.282;2023-06-04T08:00:10;32.20;33.20
1367;DHT22;16877;48.810;9.282;2023-06-04T08:02:38;32.20;33.10
1367;DHT22;16877;48.810;9.282;2023-06-04T08:05:06;32.30;33.10
1367;DHT22;16877;48.810;9.282;2023-06-04T08:07:33;32.40;33.10
1367;DHT22;16877;48.810;9.282;2023-06-04T08:10:03;32.50;33.10
1367;DHT22;16877;48.810;9.282;2023-06-04T08:12:30;32.60;33.10
1367;DHT22;16877;48.810;9.282;2023-06-04T08:15:01;32.70;33.00
1367;DHT22;16877;48.810;9.282;2023-06-04T08:17:33;32.70;33.10
1367;DHT22;16877;48.810;9.282;2023-06-04T08:20:00;32.80;33.00
1367;DHT22;16877;48.810;9.282;2023-06-04T08:22:32;32.90;33.00
1367;DHT22;16877;48.810;9.282;2023-06-04T08:24:59;33.00;32.90
1367;DHT22;16877;48.810;9.282;2023-06-04T08:27:28;33.10;33.00
1367;DHT22;16877;48.810;9.282;2023-06-04T08:29:56;33.10;32.90
1367;DHT22;16877;48.810;9.282;2023-06-04T08:32:23;33.20;32.80
1367;DHT22;16877;48.810;9.282;2023-06-04T08:34:51;33.30;32.90
1367;DHT22;16877;48.810;9.282;2023-06-04T08:37:19;33.40;32.80
1367;DHT22;16877;48.810;9.282;2023-06-04T08:39:46;33.50;32.80
1367;DHT22;16877;48.810;9.282;2023-06-04T08:42:18;33.60;32.80
1367;DHT22;16877;48.810;9.282;2023-06-04T08:44:50;33.70;32.80
1367;DHT22;16877;48.810;9.282;2023-06-04T08:47:19;33.80;32.80
1367;DHT22;16877;48.810;9.282;2023-06-04T08:49:49;33.90;32.70
1367;DHT22;16877;48.810;9.282;2023-06-04T08:52:17;34.00;32.70
1367;DHT22;16877;48.810;9.282;2023-06-04T08:54:49;34.20;33.40
1367;DHT22;16877;48.810;9.282;2023-06-04T08:57:17;34.30;32.70
1367;DHT22;16877;48.810;9.282;2023-06-04T08:59:50;34.40;32.60
1367;DHT22;16877;48.810;9.282;2023-06-04T09:02:17;34.50;32.50
1367;DHT22;16877;48.810;9.282;2023-06-04T09:04:46;34.70;32.60
1367;DHT22;16877;48.810;9.282;2023-06-04T09:07:14;34.80;32.40
1367;DHT22;16877;48.810;9.282;2023-06-04T09:09:46;35.00;32.30
1367;DHT22;16877;48.810;9.282;2023-06-04T09:12:17;35.10;32.20
1367;DHT22;16877;48.810;9.282;2023-06-04T09:14:49;35.20;32.00
1367;DHT22;16877;48.810;9.282;2023-06-04T09:17:21;35.40;31.90
1367;DHT22;16877;48.810;9.282;2023-06-04T09:19:51;35.50;31.70
1367;DHT22;16877;48.810;9.282;2023-06-04T09:22:19;35.60;31.60
1367;DHT22;16877;48.810;9.282;2023-06-04T09:24:48;35.70;31.50
1367;DHT22;16877;48.810;9.282;2023-06-04T09:27:18;35.90;31.40
1367;DHT22;16877;48.810;9.282;2023-06-04T09:29:52;36.00;31.30
1367;DHT22;16877;48.810;9.282;2023-06-04T09:32:23;36.20;31.20
1367;DHT22;16877;48.810;9.282;2023-06-04T09:34:51;36.30;31.00
1367;DHT22;16877;48.810;9.282;2023-06-04T09:37:19;36.50;30.90
1367;DHT22;16877;48.810;9.282;2023-06-04T09:39:53;36.60;30.60
1367;DHT22;16877;48.810;9.282;2023-06-04T09:42:20;36.70;30.40
1367;DHT22;16877;48.810;9.282;2023-06-04T09:44:48;36.90;30.30
1367;DHT22;16877;48.810;9.282;2023-06-04T09:47:17;37.00;30.30
1367;DHT22;16877;48.810;9.282;2023-06-04T09:49:45;37.20;30.00
1367;DHT22;16877;48.810;9.282;2023-06-04T09:52:16;37.40;30.00
1367;DHT22;16877;48.810;9.282;2023-06-04T09:54:58;37.50;29.90
1367;DHT22;16877;48.810;9.282;2023-06-04T09:57:29;37.60;29.80
1367;DHT22;16877;48.810;9.282;2023-06-04T09:59:57;37.70;29.70
1367;DHT22;16877;48.810;9.282;2023-06-04T10:02:39;37.90;29.50
1367;DHT22;16877;48.810;9.282;2023-06-04T10:05:09;38.00;29.50
1367;DHT22;16877;48.810;9.282;2023-06-04T10:07:42;38.20;29.30
1367;DHT22;16877;48.810;9.282;2023-06-04T10:10:16;38.30;29.20
1367;DHT22;16877;48.810;9.282;2023-06-04T10:12:45;38.40;29.00
1367;DHT22;16877;48.810;9.282;2023-06-04T10:15:18;38.60;29.00
1367;DHT22;16877;48.810;9.282;2023-06-04T10:17:48;38.60;28.90
1367;DHT22;16877;48.810;9.282;2023-06-04T10:20:17;38.80;28.80
1367;DHT22;16877;48.810;9.282;2023-06-04T10:22:47;38.90;28.70
1367;DHT22;16877;48.810;9.282;2023-06-04T10:25:17;39.00;28.60
1367;DHT22;16877;48.810;9.282;2023-06-04T10:27:46;39.10;28.60
1367;DHT22;16877;48.810;9.282;2023-06-04T10:30:13;39.30;28.50
1367;DHT22;16877;48.810;9.282;2023-06-04T10:32:47;39.40;28.50
1367;DHT22;16877;48.810;9.282;2023-06-04T10:35:15;39.60;28.40
1367;DHT22;16877;48.810;9.282;2023-06-04T10:37:43;39.70;28.40
1367;DHT22;16877;48.810;9.282;2023-06-04T10:40:31;39.90;28.30
1367;DHT22;16877;48.810;9.282;2023-06-04T10:43:05;40.00;28.10
1367;DHT22;16877;48.810;9.282;2023-06-04T10:45:33;40.20;28.10
1367;DHT22;16877;48.810;9.282;2023-06-04T10:48:02;40.30;28.00
1367;DHT22;16877;48.810;9.282;2023-06-04T10:50:31;40.50;28.00
1367;DHT22;16877;48.810;9.282;2023-06-04T10:52:59;40.60;27.90
1367;DHT22;16877;48.810;9.282;2023-06-04T10:55:29;40.80;27.90
1367;DHT22;16877;48.810;9.282;2023-06-04T10:57:57;40.90;27.80
1367;DHT22;16877;48.810;9.282;2023-06-04T11:00:34;41.00;27.70
1367;DHT22;16877;48.810;9.282;2023-06-04T11:03:04;41.20;27.60
1367;DHT22;16877;48.810;9.282;2023-06-04T11:05:35;41.30;27.50
1367;DHT22;16877;48.810;9.282;2023-06-04T11:08:05;41.40;27.30
1367;DHT22;16877;48.810;9.282;2023-06-04T11:10:34;41.60;27.30
1367;DHT22;16877;48.810;9.282;2023-06-04T11:13:02;41.70;27.20
1367;DHT22;16877;48.810;9.282;2023-06-04T11:15:38;41.90;27.10
1367;DHT22;16877;48.810;9.282;2023-06-04T11:18:07;42.00;26.90
1367;DHT22;16877;48.810;9.282;2023-06-04T11:20:34;42.10;26.90
1367;DHT22;16877;48.810;9.282;2023-06-04T11:23:02;42.30;26.90
1367;DHT22;16877;48.810;9.282;2023-06-04T11:25:32;42.40;26.80
1367;DHT22;16877;48.810;9.282;2023-06-04T11:28:00;42.60;27.20
1367;DHT22;16877;48.810;9.282;2023-06-04T11:30:28;42.70;26.70
1367;DHT22;16877;48.810;9.282;2023-06-04T11:33:02;42.80;26.50
1367;DHT22;16877;48.810;9.282;2023-06-04T11:35:39;43.00;26.40
1367;DHT22;16877;48.810;9.282;2023-06-04T11:38:06;43.10;26.30
1367;DHT22;16877;48.810;9.282;2023-06-04T11:40:35;43.20;26.30
1367;DHT22;16877;48.810;9.282;2023-06-04T11:43:03;43.30;26.10
1367;DHT22;16877;48.810;9.282;2023-06-04T11:45:30;43.40;26.10
1367;DHT22;16877;48.810;9.282;2023-06-04T11:47:58;43.50;26.00
1367;DHT22;16877;48.810;9.282;2023-06-04T11:50:28;43.60;25.80
1367;DHT22;16877;48.810;9.282;2023-06-04T11:52:58;43.70;25.70
1367;DHT22;16877;48.810;9.282;2023-06-04T11:55:27;43.80;25.70
1367;DHT22;16877;48.810;9.282;2023-06-04T11:57:56;43.90;25.70
1367;DHT22;16877;48.810;9.282;2023-06-04T12:00:24;43.90;25.60
1367;DHT22;16877;48.810;9.282;2023-06-04T12:02:53;44.10;25.60
1367;DHT22;16877;48.810;9.282;2023-06-04T12:05:21;44.10;25.50
1367;DHT22;16877;48.810;9.282;2023-06-04T12:07:50;44.20;25.40
1367;DHT22;16877;48.810;9.282;2023-06-04T12:10:20;44.30;25.40
1367;DHT22;16877;48.810;9.282;2023-06-04T12:12:54;44.40;25.40
1367;DHT22;16877;48.810;9.282;2023-06-04T12:15:22;44.40;25.20
1367;DHT22;16877;48.810;9.282;2023-06-04T12:17:53;44.50;25.10
1367;DHT22;16877;48.810;9.282;2023-06-04T12:20:32;44.60;25.10
1367;DHT22;16877;48.810;9.282;2023-06-04T12:22:59;44.70;25.10
1367;DHT22;16877;48.810;9.282;2023-06-04T12:25:29;44.70;25.10
1367;DHT22;16877;48.810;9.282;2023-06-04T12:27:56;44.80;25.00
1367;DHT22;16877;48.810;9.282;2023-06-04T12:30:35;44.90;24.90
1367;DHT22;16877;48.810;9.282;2023-06-04T12:33:03;44.90;24.80
1367;DHT22;16877;48.810;9.282;2023-06-04T12:35:33;45.00;24.90
1367;DHT22;16877;48.810;9.282;2023-06-04T12:38:03;45.10;24.80
1367;DHT22;16877;48.810;9.282;2023-06-04T12:40:32;45.10;24.70
1367;DHT22;16877;48.810;9.282;2023-06-04T12:43:14;45.20;24.70
1367;DHT22;16877;48.810;9.282;2023-06-04T12:45:42;45.30;24.60
1367;DHT22;16877;48.810;9.282;2023-06-04T12:48:11;45.30;24.70
1367;DHT22;16877;48.810;9.282;2023-06-04T12:50:38;45.40;24.60
1367;DHT22;16877;48.810;9.282;2023-06-04T12:53:06;45.50;24.60
1367;DHT22;16877;48.810;9.282;2023-06-04T12:55:35;45.50;24.50
1367;DHT22;16877;48.810;9.282;2023-06-04T12:58:02;45.60;24.60
1367;DHT22;16877;48.810;9.282;2023-06-04T13:00:29;45.70;24.60
1367;DHT22;16877;48.810;9.282;2023-06-04T13:03:12;45.70;24.40
1367;DHT22;16877;48.810;9.282;2023-06-04T13:05:39;45.70;24.30
1367;DHT22;16877;48.810;9.282;2023-06-04T13:08:06;45.70;24.40
1367;DHT22;16877;48.810;9.282;2023-06-04T13:10:51;45.80;24.30
1367;DHT22;16877;48.810;9.282;2023-06-04T13:13:19;45.30;24.30
1367;DHT22;16877;48.810;9.282;2023-06-04T13:15:47;45.00;24.10
1367;DHT22;16877;48.810;9.282;2023-06-04T13:18:15;44.70;24.00
1367;DHT22;16877;48.810;9.282;2023-06-04T13:20:42;44.30;23.80
1367;DHT22;16877;48.810;9.282;2023-06-04T13:23:10;44.30;24.60
1367;DHT22;16877;48.810;9.282;2023-06-04T13:25:37;44.50;24.10
1367;DHT22;16877;48.810;9.282;2023-06-04T13:28:07;44.80;24.20
1367;DHT22;16877;48.810;9.282;2023-06-04T13:30:38;45.00;24.00
1367;DHT22;16877;48.810;9.282;2023-06-04T13:33:06;45.10;24.00
1367;DHT22;16877;48.810;9.282;2023-06-04T13:35:33;45.30;24.10
1367;DHT22;16877;48.810;9.282;2023-06-04T13:38:01;45.40;23.90
1367;DHT22;16877;48.810;9.282;2023-06-04T13:40:31;45.50;23.80
1367;DHT22;16877;48.810;9.282;2023-06-04T13:42:58;45.50;23.70
1367;DHT22;16877;48.810;9.282;2023-06-04T13:45:27;45.60;23.70
1367;DHT22;16877;48.810;9.282;2023-06-04T13:47:54;45.70;23.80
1367;DHT22;16877;48.810;9.282;2023-06-04T13:50:27;45.70;23.50
1367;DHT22;16877;48.810;9.282;2023-06-04T13:52:55;45.80;23.50
1367;DHT22;16877;48.810;9.282;2023-06-04T13:55:23;45.90;23.50
1367;DHT22;16877;48.810;9.282;2023-06-04T13:57:50;45.90;23.50
1367;DHT22;16877;48.810;9.282;2023-06-04T14:00:18;46.10;23.50
1367;DHT22;16877;48.810;9.282;2023-06-04T14:02:49;46.10;23.50
1367;DHT22;16877;48.810;9.282;2023-06-04T14:05:18;46.20;23.40
1367;DHT22;16877;48.810;9.282;2023-06-04T14:07:45;46.30;23.50
1367;DHT22;16877;48.810;9.282;2023-06-04T14:10:13;46.30;23.40
1367;DHT22;16877;48.810;9.282;2023-06-04T14:12:40;46.40;23.30
1367;DHT22;16877;48.810;9.282;2023-06-04T14:15:10;46.50;23.20
1367;DHT22;16877;48.810;9.282;2023-06-04T14:17:38;46.50;23.00
1367;DHT22;16877;48.810;9.282;2023-06-04T14:20:09;46.60;23.00
1367;DHT22;16877;48.810;9.282;2023-06-04T14:22:40;46.70;23.00
1367;DHT22;16877;48.810;9.282;2023-06-04T14:25:08;46.70;23.00
1367;DHT22;16877;48.810;9.282;2023-06-04T14:27:35;46.80;23.10
1367;DHT22;16877;48.810;9.282;2023-06-04T14:30:04;46.80;23.10
1367;DHT22;16877;48.810;9.282;2023-06-04T14:32:32;46.90;23.00
1367;DHT22;16877;48.810;9.282;2023-06-04T14:34:59;46.90;22.90
1367;DHT22;16877;48.810;9.282;2023-06-04T14:37:28;47.00;22.90
1367;DHT22;16877;48.810;9.282;2023-06-04T14:39:57;47.10;22.80
1367;DHT22;16877;48.810;9.282;2023-06-04T14:42:25;47.10;22.80
1367;DHT22;16877;48.810;9.282;2023-06-04T14:44:52;47.20;22.80
1367;DHT22;16877;48.810;9.282;2023-06-04T14:47:20;47.20;22.80
1367;DHT22;16877;48.810;9.282;2023-06-04T14:49:48;47.00;22.70
1367;DHT22;16877;48.810;9.282;2023-06-04T14:52:16;46.90;22.70
1367;DHT22;16877;48.810;9.282;2023-06-04T14:54:46;46.90;22.80
1367;DHT22;16877;48.810;9.282;2023-06-04T14:57:13;46.90;22.80
1367;DHT22;16877;48.810;9.282;2023-06-04T14:59:42;46.90;22.80
1367;DHT22;16877;48.810;9.282;2023-06-04T15:02:10;46.80;22.60
1367;DHT22;16877;48.810;9.282;2023-06-04T15:04:37;46.90;22.50
1367;DHT22;16877;48.810;9.282;2023-06-04T15:07:07;46.80;22.40
1367;DHT22;16877;48.810;9.282;2023-06-04T15:09:35;46.80;22.50
1367;DHT22;16877;48.810;9.282;2023-06-04T15:12:19;46.80;22.50
1367;DHT22;16877;48.810;9.282;2023-06-04T15:14:47;46.80;22.50
1367;DHT22;16877;48.810;9.282;2023-06-04T15:17:14;46.80;22.40
1367;DHT22;16877;48.810;9.282;2023-06-04T15:19:42;46.80;22.40
1367;DHT22;16877;48.810;9.282;2023-06-04T15:22:10;46.80;22.40
1367;DHT22;16877;48.810;9.282;2023-06-04T15:24:38;46.80;22.50
1367;DHT22;16877;48.810;9.282;2023-06-04T15:27:06;46.80;22.50
1367;DHT22;16877;48.810;9.282;2023-06-04T15:29:36;46.80;22.60
1367;DHT22;16877;48.810;9.282;2023-06-04T15:32:19;46.80;22.50
1367;DHT22;16877;48.810;9.282;2023-06-04T15:34:47;46.80;22.40
1367;DHT22;16877;48.810;9.282;2023-06-04T15:37:15;46.80;22.50
1367;DHT22;16877;48.810;9.282;2023-06-04T15:39:42;46.80;22.40
1367;DHT22;16877;48.810;9.282;2023-06-04T15:42:09;46.70;22.40
1367;DHT22;16877;48.810;9.282;2023-06-04T15:44:39;46.60;22.30
1367;DHT22;16877;48.810;9.282;2023-06-04T15:47:06;46.60;22.30
1367;DHT22;16877;48.810;9.282;2023-06-04T15:49:34;46.50;22.40
1367;DHT22;16877;48.810;9.282;2023-06-04T15:52:02;46.50;22.30
1367;DHT22;16877;48.810;9.282;2023-06-04T15:54:30;46.50;22.30
1367;DHT22;16877;48.810;9.282;2023-06-04T15:56:57;46.40;22.30
1367;DHT22;16877;48.810;9.282;2023-06-04T15:59:25;46.30;22.30
1367;DHT22;16877;48.810;9.282;2023-06-04T16:01:54;46.40;22.40